Columbus Municipal Airport
KOLU : now visible

Airfield :











YOU CAN JOIN US ON...

 
LOGIN :

Register | Disclaimer

   EN    FR    IT 

 









Legend :    VFR   Marginal VFR   IFR   Intensive IFR   Very Intensive IFR
Visi :
Ceiling :
>= 8 km
>= 3000ft
5 to 8 km
1000 to 3000 ft
1500m to 5 km
500 to 1000 ft
800 to 1500m
200 to 500 ft
< 800m
< 200 ft
Symbols :   Thunderstorms  Fog  Heavy snow  Heavy precipitations  Wind > 20 kt







- Airport Elevation : 1447 ft


KOLU - Columbus Municipal

CURRENT METAR :
  • 201956Z AUTO 16018G25KT 10SM SCT046 31/19 A2989 RMK AO2 PK WND 15026/1935 SLP108 T03110189

EXPIRED METARs :
  • 201856Z AUTO 15012KT 10SM FEW045 31/19 A2991 RMK AO2 PK WND 14026/1819 SLP117 T03060194
  • 201756Z AUTO 17015G24KT 10SM FEW045 SCT110 30/18 A2994 RMK AO2 SLP126 T03000178 10300 20217 58012

TAF N/A
No reported NOTAMs for that airfield.



MET'MAP, your aeronautical weather chart ! - Copyright ORBIFLY December 2007 - Disclaimer

ORBIFLY MET'MAP TEAM :

Programming & Development : Alexandra Zaïnal
Concept & Development : Baudouin d'Aumeries
Co-Development & Prog : Marc-Olivier Méhu
Technical & hardware support : Manuel Goepfert

Contact : metmap@orbifly.com




SOURCES & CREDITS :

   NOAA       Earth
Advisory